createdAt,value
2022-12-18T00:00:01.857Z,37.0
2022-12-18T00:01:02.464Z,37.0
2022-12-18T00:02:02.337Z,37.0
2022-12-18T00:03:01.552Z,37.0
2022-12-18T00:04:04.084Z,37.0
2022-12-18T00:05:01.858Z,37.0
2022-12-18T00:06:02.440Z,37.0
2022-12-18T00:07:01.504Z,36.9
2022-12-18T00:08:02.291Z,37.0
2022-12-18T00:09:02.992Z,36.9
2022-12-18T00:10:01.465Z,36.9
2022-12-18T00:11:04.814Z,36.9
2022-12-18T00:13:03.908Z,36.9
2022-12-18T00:14:02.121Z,36.7
2022-12-18T00:15:01.465Z,36.9
2022-12-18T00:16:03.311Z,36.9
2022-12-18T00:17:01.448Z,36.9
2022-12-18T00:18:01.484Z,36.9
2022-12-18T00:19:02.021Z,36.7
2022-12-18T00:20:02.311Z,36.7
2022-12-18T00:21:03.697Z,36.7
2022-12-18T00:22:01.786Z,36.7
2022-12-18T00:23:01.861Z,36.7
2022-12-18T00:24:02.527Z,36.7
2022-12-18T00:25:02.078Z,36.9
2022-12-18T00:26:03.515Z,36.7
2022-12-18T00:27:01.810Z,36.7
2022-12-18T00:28:02.301Z,36.7
2022-12-18T00:29:03.825Z,36.7
2022-12-18T00:30:01.493Z,36.7
2022-12-18T00:31:02.605Z,36.7
2022-12-18T00:32:01.576Z,36.7
2022-12-18T00:33:01.479Z,36.5
2022-12-18T00:34:01.838Z,36.5
2022-12-18T00:35:02.327Z,36.5
2022-12-18T00:36:01.760Z,36.7
2022-12-18T00:37:01.796Z,36.5
2022-12-18T00:38:01.803Z,36.3
2022-12-18T00:39:04.056Z,36.3
2022-12-18T00:40:01.990Z,36.3
2022-12-18T00:41:02.069Z,36.3
2022-12-18T00:42:01.456Z,36.3
2022-12-18T00:43:01.475Z,36.5
2022-12-18T00:44:02.725Z,36.5
2022-12-18T00:45:01.801Z,36.3
2022-12-18T00:46:01.951Z,36.3
2022-12-18T00:47:01.458Z,36.1
2022-12-18T00:48:01.559Z,36.1
2022-12-18T00:49:02.840Z,36.3
2022-12-18T00:50:01.846Z,36.1
2022-12-18T00:51:01.786Z,36.1
2022-12-18T00:52:01.459Z,36.0
2022-12-18T00:53:01.800Z,36.1
2022-12-18T00:54:01.849Z,36.1
2022-12-18T00:55:06.260Z,36.1
2022-12-18T00:56:01.795Z,36.1
2022-12-18T00:57:01.861Z,36.1
2022-12-18T00:58:01.445Z,36.3
2022-12-18T00:59:01.480Z,36.3
2022-12-18T01:00:02.511Z,36.3
2022-12-18T01:01:03.967Z,36.1
2022-12-18T01:02:01.642Z,36.3
2022-12-18T01:03:02.550Z,36.3
2022-12-18T01:04:03.217Z,36.1
2022-12-18T01:05:01.462Z,36.0
2022-12-18T01:06:06.770Z,36.0
2022-12-18T01:07:01.465Z,36.1
2022-12-18T01:08:01.721Z,36.1
2022-12-18T01:09:01.884Z,36.0
2022-12-18T01:10:01.457Z,36.0
2022-12-18T01:11:07.256Z,36.0
2022-12-18T01:12:01.825Z,36.0
2022-12-18T01:13:01.465Z,36.0
2022-12-18T01:14:01.486Z,36.1
2022-12-18T01:15:01.953Z,36.0
2022-12-18T01:16:02.175Z,36.0
2022-12-18T01:17:01.790Z,35.8
2022-12-18T01:18:01.444Z,36.0
2022-12-18T01:19:02.068Z,36.0
2022-12-18T01:20:01.537Z,36.0
2022-12-18T01:21:06.070Z,36.0
2022-12-18T01:22:01.798Z,36.0
2022-12-18T01:23:01.474Z,36.0
2022-12-18T01:24:01.798Z,36.0
2022-12-18T01:25:03.264Z,36.0
2022-12-18T01:26:05.664Z,35.8
2022-12-18T01:27:01.822Z,35.8
2022-12-18T01:28:02.022Z,35.8
2022-12-18T01:29:01.451Z,35.6
2022-12-18T01:30:02.669Z,35.6
2022-12-18T01:31:12.610Z,35.4
2022-12-18T01:32:01.521Z,35.4
2022-12-18T01:33:01.470Z,35.6
2022-12-18T01:34:01.904Z,35.6
2022-12-18T01:35:01.684Z,35.4
2022-12-18T01:36:01.450Z,35.4
2022-12-18T01:37:03.223Z,35.4
2022-12-18T01:38:01.790Z,35.4
2022-12-18T01:39:03.797Z,35.4
2022-12-18T01:40:01.699Z,35.4
2022-12-18T01:41:02.400Z,35.4
2022-12-18T01:42:03.194Z,35.4
2022-12-18T01:43:01.823Z,35.4
2022-12-18T01:44:01.463Z,35.4
2022-12-18T01:45:04.705Z,35.4
2022-12-18T01:46:01.494Z,35.4
2022-12-18T01:47:01.608Z,35.4
2022-12-18T01:48:05.395Z,35.2
2022-12-18T01:49:02.295Z,35.2
2022-12-18T01:50:06.657Z,35.2
2022-12-18T01:51:01.734Z,35.2
2022-12-18T01:52:02.105Z,35.2
2022-12-18T01:53:10.170Z,35.2
2022-12-18T01:54:01.473Z,35.4
2022-12-18T01:55:04.165Z,35.4
2022-12-18T01:56:01.862Z,35.4
2022-12-18T01:57:01.858Z,35.2
2022-12-18T01:58:02.294Z,35.2
2022-12-18T01:59:05.115Z,35.2
2022-12-18T02:00:05.799Z,35.2
2022-12-18T02:01:01.891Z,35.1
2022-12-18T02:02:03.525Z,35.2
2022-12-18T02:03:02.304Z,35.2
2022-12-18T02:04:19.399Z,35.1
2022-12-18T02:05:03.005Z,35.1
2022-12-18T02:06:10.469Z,35.1
2022-12-18T02:07:11.579Z,34.9
2022-12-18T02:08:10.406Z,35.1
2022-12-18T02:09:11.386Z,34.9
2022-12-18T02:10:07.545Z,34.9
2022-12-18T02:11:07.540Z,34.9
2022-12-18T02:12:10.265Z,34.7
2022-12-18T02:13:10.975Z,34.7
2022-12-18T02:14:12.742Z,34.7
2022-12-18T02:15:09.860Z,34.9
2022-12-18T02:16:08.245Z,34.9
2022-12-18T02:17:07.521Z,34.7
2022-12-18T02:18:07.991Z,34.7
2022-12-18T02:19:15.424Z,34.5
2022-12-18T02:20:12.449Z,34.7
2022-12-18T02:21:11.822Z,34.7
2022-12-18T02:22:13.046Z,34.9
2022-12-18T02:23:18.046Z,34.9
2022-12-18T02:24:17.746Z,34.5
2022-12-18T02:25:12.687Z,34.5
2022-12-18T02:26:07.877Z,34.5
2022-12-18T02:27:05.647Z,34.7
2022-12-18T02:28:07.306Z,34.5
2022-12-18T02:29:07.123Z,34.5
2022-12-18T02:30:04.319Z,34.7
2022-12-18T02:31:06.201Z,34.5
2022-12-18T02:32:06.152Z,34.5
2022-12-18T02:33:04.988Z,34.5
2022-12-18T02:34:04.910Z,34.3
2022-12-18T02:35:04.590Z,34.5
2022-12-18T02:36:04.647Z,34.7
2022-12-18T02:37:06.113Z,34.5
2022-12-18T02:38:03.377Z,34.5
2022-12-18T02:39:03.491Z,34.5
2022-12-18T02:40:04.886Z,34.5
2022-12-18T02:41:04.352Z,34.3
2022-12-18T02:42:02.213Z,34.3
2022-12-18T02:43:10.575Z,34.3
2022-12-18T02:44:07.129Z,34.3
2022-12-18T02:45:01.805Z,34.3
2022-12-18T02:46:21.114Z,34.5
2022-12-18T02:47:02.660Z,34.5
2022-12-18T02:48:02.001Z,34.3
2022-12-18T02:49:11.688Z,34.2
2022-12-18T02:50:14.836Z,34.2
2022-12-18T02:51:08.649Z,34.2
2022-12-18T02:52:07.973Z,34.2
2022-12-18T02:53:11.053Z,34.3
2022-12-18T02:54:10.461Z,34.2
2022-12-18T02:55:13.424Z,34.2
2022-12-18T02:56:07.621Z,34.2
2022-12-18T02:57:10.197Z,34.3
2022-12-18T02:58:09.119Z,34.2
2022-12-18T02:59:06.560Z,34.2
2022-12-18T03:00:08.002Z,34.0
2022-12-18T03:01:09.831Z,34.0
2022-12-18T03:02:09.969Z,34.2
2022-12-18T03:03:09.820Z,34.0
2022-12-18T03:04:07.303Z,34.0
2022-12-18T03:05:09.617Z,34.0
2022-12-18T03:06:06.350Z,33.8
2022-12-18T03:07:08.026Z,33.6
2022-12-18T03:08:06.967Z,33.8
2022-12-18T03:09:09.216Z,33.8
2022-12-18T03:10:03.200Z,33.8
2022-12-18T03:11:04.874Z,33.8
2022-12-18T03:12:10.590Z,33.6
2022-12-18T03:13:06.292Z,33.8
2022-12-18T03:14:04.128Z,33.6
2022-12-18T03:15:11.052Z,33.6
2022-12-18T03:16:05.500Z,33.6
2022-12-18T03:17:06.388Z,33.6
2022-12-18T03:18:07.913Z,33.6
2022-12-18T03:19:07.040Z,33.6
2022-12-18T03:20:07.744Z,33.6
2022-12-18T03:21:06.134Z,33.6
2022-12-18T03:22:06.248Z,33.4
2022-12-18T03:23:07.329Z,33.6
2022-12-18T03:24:06.181Z,33.6
2022-12-18T03:25:06.047Z,33.4
2022-12-18T03:26:07.693Z,33.4
2022-12-18T03:27:05.565Z,33.6
2022-12-18T03:28:06.436Z,33.4
2022-12-18T03:29:06.549Z,33.6
2022-12-18T03:30:05.607Z,33.4
2022-12-18T03:31:05.110Z,33.4
2022-12-18T03:32:05.986Z,33.3
2022-12-18T03:33:08.760Z,33.3
2022-12-18T03:34:09.184Z,33.4
2022-12-18T03:35:05.922Z,33.4
2022-12-18T03:36:01.787Z,33.6
2022-12-18T03:37:02.329Z,33.4
2022-12-18T03:38:02.055Z,33.3
2022-12-18T03:39:01.479Z,33.3
2022-12-18T03:40:02.101Z,33.1
2022-12-18T03:41:10.708Z,33.1
2022-12-18T03:42:06.782Z,33.3
2022-12-18T03:43:09.030Z,33.4
2022-12-18T03:44:10.939Z,33.3
2022-12-18T03:45:10.284Z,33.4
2022-12-18T03:46:07.088Z,33.4
2022-12-18T03:47:08.097Z,33.4
2022-12-18T03:48:07.606Z,33.3
2022-12-18T03:49:09.870Z,33.3
2022-12-18T03:50:12.954Z,33.3
2022-12-18T03:51:08.149Z,33.1
2022-12-18T03:52:06.292Z,33.1
2022-12-18T03:53:17.480Z,33.3
2022-12-18T03:54:04.184Z,33.3
2022-12-18T03:55:03.635Z,33.1
2022-12-18T03:56:04.071Z,32.9
2022-12-18T03:57:09.957Z,32.7
2022-12-18T03:58:03.680Z,32.7
2022-12-18T03:59:04.944Z,32.7
2022-12-18T04:00:06.081Z,33.1
2022-12-18T04:01:06.037Z,33.1
2022-12-18T04:02:04.340Z,33.1
2022-12-18T04:03:03.598Z,33.3
2022-12-18T04:04:03.858Z,33.1
2022-12-18T04:05:07.488Z,33.1
2022-12-18T04:06:03.085Z,32.9
2022-12-18T04:07:03.062Z,33.1
2022-12-18T04:08:02.300Z,33.1
2022-12-18T04:09:01.927Z,32.9
2022-12-18T04:10:03.592Z,33.1
2022-12-18T04:11:02.570Z,32.7
2022-12-18T04:12:01.461Z,32.5
2022-12-18T04:13:01.829Z,32.5
2022-12-18T04:14:05.856Z,32.5
2022-12-18T04:15:02.073Z,32.5
2022-12-18T04:16:01.654Z,32.5
2022-12-18T04:17:01.938Z,32.9
2022-12-18T04:18:01.466Z,33.1
2022-12-18T04:19:01.546Z,33.1
2022-12-18T04:20:01.808Z,33.3
2022-12-18T04:21:02.490Z,33.1
2022-12-18T04:22:01.462Z,33.3
2022-12-18T04:23:01.476Z,33.1
2022-12-18T04:24:01.819Z,33.3
2022-12-18T04:25:01.464Z,33.1
2022-12-18T04:26:01.945Z,33.1
2022-12-18T04:27:01.554Z,33.1
2022-12-18T04:28:01.463Z,32.9
2022-12-18T04:29:01.672Z,32.9
2022-12-18T04:30:01.819Z,33.1
2022-12-18T04:31:01.569Z,33.1
2022-12-18T04:32:01.458Z,33.1
2022-12-18T04:33:01.478Z,32.9
2022-12-18T04:34:01.645Z,32.9
2022-12-18T04:35:01.693Z,32.9
2022-12-18T04:36:01.549Z,32.9
2022-12-18T04:37:02.223Z,32.9
2022-12-18T04:38:01.473Z,32.7
2022-12-18T04:39:01.462Z,32.7
2022-12-18T04:40:01.457Z,32.9
2022-12-18T04:41:01.451Z,33.1
2022-12-18T04:42:01.842Z,33.1
2022-12-18T04:43:02.042Z,33.3
2022-12-18T04:44:01.467Z,33.1
2022-12-18T04:45:01.474Z,32.9
2022-12-18T04:46:02.340Z,32.9
2022-12-18T04:47:01.490Z,32.9
2022-12-18T04:48:03.526Z,33.1
2022-12-18T04:49:01.835Z,33.1
2022-12-18T04:50:01.452Z,32.9
2022-12-18T04:51:01.516Z,32.9
2022-12-18T04:52:01.815Z,32.9
2022-12-18T04:53:01.454Z,32.9
2022-12-18T04:54:01.471Z,33.1
2022-12-18T04:55:01.820Z,33.1
2022-12-18T04:56:03.478Z,33.1
2022-12-18T04:57:01.466Z,33.1
2022-12-18T04:58:01.785Z,32.9
2022-12-18T04:59:01.605Z,32.9
2022-12-18T05:00:03.175Z,32.9
2022-12-18T05:01:01.845Z,32.9
2022-12-18T05:02:01.912Z,32.9
2022-12-18T05:03:02.875Z,32.7
2022-12-18T05:04:01.760Z,32.7
2022-12-18T05:05:02.151Z,32.5
2022-12-18T05:06:02.287Z,32.7
2022-12-18T05:07:01.485Z,32.7
2022-12-18T05:08:01.541Z,32.7
2022-12-18T05:09:01.827Z,32.5
2022-12-18T05:10:03.414Z,32.4
2022-12-18T05:11:03.834Z,32.2
2022-12-18T05:12:01.489Z,32.4
2022-12-18T05:13:01.571Z,32.4
2022-12-18T05:14:01.883Z,32.4
2022-12-18T05:15:01.457Z,32.5
2022-12-18T05:16:02.838Z,32.5
2022-12-18T05:17:01.562Z,32.5
2022-12-18T05:18:02.551Z,32.4
2022-12-18T05:19:01.470Z,32.4
2022-12-18T05:20:01.464Z,32.5
2022-12-18T05:21:02.162Z,32.4
2022-12-18T05:22:02.235Z,32.2
2022-12-18T05:23:01.962Z,32.0
2022-12-18T05:24:01.825Z,32.4
2022-12-18T05:25:01.810Z,32.4
2022-12-18T05:26:04.829Z,32.2
2022-12-18T05:27:01.624Z,32.0
2022-12-18T05:28:01.469Z,32.0
2022-12-18T05:29:01.821Z,32.2
2022-12-18T05:30:01.812Z,32.0
2022-12-18T05:31:04.642Z,32.2
2022-12-18T05:32:01.723Z,32.0
2022-12-18T05:33:01.804Z,32.0
2022-12-18T05:34:01.463Z,32.2
2022-12-18T05:35:02.345Z,32.2
2022-12-18T05:36:04.095Z,32.2
2022-12-18T05:37:01.794Z,32.2
2022-12-18T05:38:01.453Z,32.2
2022-12-18T05:39:01.517Z,32.4
2022-12-18T05:40:02.364Z,32.4
2022-12-18T05:41:02.492Z,32.5
2022-12-18T05:42:01.471Z,32.4
2022-12-18T05:43:01.684Z,32.4
2022-12-18T05:44:01.645Z,32.2
2022-12-18T05:45:01.451Z,32.4
2022-12-18T05:46:04.488Z,32.5
2022-12-18T05:47:01.869Z,32.5
2022-12-18T05:48:01.447Z,32.9
2022-12-18T05:49:01.971Z,32.9
2022-12-18T05:50:01.471Z,33.1
2022-12-18T05:51:06.342Z,33.1
2022-12-18T05:52:02.199Z,33.1
2022-12-18T05:53:01.472Z,33.1
2022-12-18T05:54:01.828Z,33.1
2022-12-18T05:55:01.975Z,33.3
2022-12-18T05:56:03.017Z,32.9
2022-12-18T05:57:01.488Z,32.7
2022-12-18T05:58:01.821Z,33.1
2022-12-18T05:59:01.464Z,33.1
2022-12-18T06:00:01.525Z,33.1
2022-12-18T06:01:07.873Z,33.1
2022-12-18T06:02:01.969Z,33.1
2022-12-18T06:03:02.533Z,33.1
2022-12-18T06:04:01.564Z,33.3
2022-12-18T06:05:01.989Z,33.3
2022-12-18T06:06:01.500Z,33.1
2022-12-18T06:07:04.392Z,33.1
2022-12-18T06:08:01.614Z,32.9
2022-12-18T06:09:01.523Z,32.9
2022-12-18T06:10:01.797Z,33.1
2022-12-18T06:11:01.455Z,33.1
2022-12-18T06:12:01.769Z,33.1
2022-12-18T06:13:01.838Z,32.9
2022-12-18T06:14:03.043Z,32.9
2022-12-18T06:15:02.288Z,32.9
2022-12-18T06:16:02.538Z,32.9
2022-12-18T06:17:01.449Z,32.9
2022-12-18T06:18:01.795Z,32.9
2022-12-18T06:19:03.827Z,32.9
2022-12-18T06:20:01.866Z,33.4
2022-12-18T06:21:01.794Z,33.3
2022-12-18T06:22:01.459Z,33.3
2022-12-18T06:23:01.946Z,33.3
2022-12-18T06:24:01.462Z,33.4
2022-12-18T06:25:01.531Z,33.4
2022-12-18T06:26:04.592Z,33.6
2022-12-18T06:27:01.692Z,33.4
2022-12-18T06:28:01.455Z,33.3
2022-12-18T06:29:01.482Z,33.3
2022-12-18T06:30:02.237Z,33.4
2022-12-18T06:31:03.912Z,33.4
2022-12-18T06:32:01.493Z,33.3
2022-12-18T06:33:01.455Z,33.1
2022-12-18T06:34:03.665Z,33.3
2022-12-18T06:35:01.820Z,33.1
2022-12-18T06:36:04.060Z,32.9
2022-12-18T06:37:01.784Z,32.9
2022-12-18T06:38:02.374Z,32.9
2022-12-18T06:39:01.859Z,32.9
2022-12-18T06:40:01.457Z,32.9
2022-12-18T06:41:06.919Z,32.9
2022-12-18T06:42:01.451Z,32.9
2022-12-18T06:43:01.459Z,33.1
2022-12-18T06:44:01.487Z,33.1
2022-12-18T06:45:01.466Z,33.3
2022-12-18T06:46:02.641Z,33.1
2022-12-18T06:47:01.447Z,33.3
2022-12-18T06:48:01.676Z,33.3
2022-12-18T06:49:02.291Z,33.4
2022-12-18T06:50:01.487Z,33.1
2022-12-18T06:51:02.791Z,32.9
2022-12-18T06:52:01.448Z,33.1
2022-12-18T06:53:01.474Z,33.1
2022-12-18T06:54:01.549Z,33.1
2022-12-18T06:55:01.495Z,33.3
2022-12-18T06:56:09.241Z,33.3
2022-12-18T06:57:01.461Z,33.3
2022-12-18T06:58:01.960Z,33.3
2022-12-18T06:59:01.966Z,33.3
2022-12-18T07:00:02.083Z,33.1
2022-12-18T07:01:02.852Z,33.1
2022-12-18T07:02:01.868Z,33.1
2022-12-18T07:03:02.064Z,33.1
2022-12-18T07:04:01.474Z,32.9
2022-12-18T07:05:07.440Z,33.1
2022-12-18T07:06:02.811Z,33.1
2022-12-18T07:07:01.794Z,33.1
2022-12-18T07:08:01.449Z,33.1
2022-12-18T07:09:01.462Z,32.9
2022-12-18T07:10:01.834Z,32.9
2022-12-18T07:11:04.238Z,32.9
2022-12-18T07:12:01.895Z,32.9
2022-12-18T07:13:01.495Z,33.1
2022-12-18T07:14:01.542Z,32.7
2022-12-18T07:15:01.602Z,32.7
2022-12-18T07:16:10.891Z,32.5
2022-12-18T07:17:01.956Z,32.5
2022-12-18T07:18:01.942Z,32.9
2022-12-18T07:19:01.479Z,32.7
2022-12-18T07:20:01.485Z,32.7
2022-12-18T07:21:04.137Z,32.5
2022-12-18T07:22:02.355Z,32.5
2022-12-18T07:23:02.349Z,32.7
2022-12-18T07:24:01.451Z,32.7
2022-12-18T07:25:01.474Z,32.7
2022-12-18T07:26:02.927Z,32.5
2022-12-18T07:27:01.962Z,32.5
2022-12-18T07:28:02.258Z,32.7
2022-12-18T07:29:01.820Z,32.9
2022-12-18T07:30:01.509Z,32.9
2022-12-18T07:31:03.851Z,32.9
2022-12-18T07:32:01.581Z,32.9
2022-12-18T07:33:01.567Z,32.9
2022-12-18T07:34:01.829Z,32.7
2022-12-18T07:35:01.853Z,32.7
2022-12-18T07:36:03.669Z,32.7
2022-12-18T07:37:01.926Z,32.9
2022-12-18T07:38:01.445Z,32.7
2022-12-18T07:39:01.797Z,32.9
2022-12-18T07:40:01.516Z,33.1
2022-12-18T07:41:02.551Z,33.1
2022-12-18T07:42:01.797Z,33.1
2022-12-18T07:43:01.845Z,32.9
2022-12-18T07:44:01.800Z,32.9
2022-12-18T07:45:02.572Z,32.9
2022-12-18T07:46:01.560Z,32.9
2022-12-18T07:47:01.836Z,32.9
2022-12-18T07:48:01.452Z,33.1
2022-12-18T07:49:01.458Z,33.1
2022-12-18T07:50:01.485Z,33.1
2022-12-18T07:51:03.117Z,33.1
2022-12-18T07:52:01.458Z,33.1
2022-12-18T07:53:01.463Z,33.1
2022-12-18T07:54:01.451Z,33.1
2022-12-18T07:55:02.664Z,33.3
2022-12-18T07:56:26.534Z,33.1
2022-12-18T07:57:01.607Z,33.1
2022-12-18T07:58:02.279Z,33.1
2022-12-18T07:59:01.537Z,33.1
2022-12-18T08:00:01.844Z,33.1
2022-12-18T08:01:04.491Z,32.9
2022-12-18T08:02:01.889Z,33.1
2022-12-18T08:03:02.104Z,33.1
2022-12-18T08:04:01.461Z,33.1
2022-12-18T08:05:01.450Z,33.1
2022-12-18T08:06:02.364Z,33.1
2022-12-18T08:07:01.551Z,32.9
2022-12-18T08:08:01.789Z,33.1
2022-12-18T08:09:01.464Z,33.1
2022-12-18T08:10:01.854Z,33.1
2022-12-18T08:11:02.290Z,33.1
2022-12-18T08:12:01.458Z,33.1
2022-12-18T08:13:04.859Z,33.3
2022-12-18T08:14:01.824Z,33.3
2022-12-18T08:15:01.469Z,33.3
2022-12-18T08:16:04.207Z,33.3
2022-12-18T08:17:02.033Z,33.1
2022-12-18T08:18:01.443Z,33.3
2022-12-18T08:19:02.240Z,33.4
2022-12-18T08:20:01.488Z,33.3
2022-12-18T08:21:09.427Z,33.3
2022-12-18T08:22:01.778Z,33.1
2022-12-18T08:23:01.820Z,33.3
2022-12-18T08:24:02.356Z,33.1
2022-12-18T08:25:01.967Z,33.1
2022-12-18T08:26:01.825Z,33.4
2022-12-18T08:27:29.755Z,33.1
2022-12-18T08:28:01.596Z,33.1
2022-12-18T08:29:01.963Z,33.3
2022-12-18T08:30:01.744Z,33.3
2022-12-18T08:31:01.534Z,33.3
2022-12-18T08:32:01.522Z,33.1
2022-12-18T08:33:01.463Z,33.1
2022-12-18T08:34:01.853Z,33.1
2022-12-18T08:35:01.818Z,33.3
2022-12-18T08:36:02.741Z,33.4
2022-12-18T08:37:01.798Z,33.3
2022-12-18T08:38:01.446Z,33.3
2022-12-18T08:39:01.820Z,33.3
2022-12-18T08:40:02.342Z,33.4
2022-12-18T08:41:03.501Z,33.4
2022-12-18T08:42:04.191Z,33.4
2022-12-18T08:43:01.467Z,33.4
2022-12-18T08:44:01.476Z,33.4
2022-12-18T08:45:02.149Z,33.4
2022-12-18T08:46:01.853Z,33.6
2022-12-18T08:47:01.803Z,33.4
2022-12-18T08:48:01.465Z,33.4
2022-12-18T08:49:02.409Z,33.3
2022-12-18T08:50:02.453Z,33.3
2022-12-18T08:51:01.891Z,33.3
2022-12-18T08:52:01.970Z,33.4
2022-12-18T08:53:01.843Z,33.3
2022-12-18T08:54:02.390Z,33.4
2022-12-18T08:55:01.787Z,33.4
2022-12-18T08:56:02.012Z,33.3
2022-12-18T08:57:01.836Z,33.1
2022-12-18T08:58:01.469Z,33.1
2022-12-18T08:59:02.117Z,33.1
2022-12-18T09:00:01.443Z,33.4
2022-12-18T09:01:02.707Z,33.4
2022-12-18T09:02:01.995Z,33.3
2022-12-18T09:03:01.584Z,33.3
2022-12-18T09:04:01.930Z,33.4
2022-12-18T09:05:01.788Z,33.4
2022-12-18T09:06:01.827Z,33.4
2022-12-18T09:07:01.819Z,33.6
2022-12-18T09:08:01.484Z,33.4
2022-12-18T09:09:02.016Z,33.6
2022-12-18T09:10:01.482Z,33.6
2022-12-18T09:11:03.130Z,33.4
2022-12-18T09:12:01.704Z,33.4
2022-12-18T09:13:01.456Z,33.4
2022-12-18T09:14:02.187Z,33.4
2022-12-18T09:15:01.835Z,33.4
2022-12-18T09:16:04.016Z,33.3
2022-12-18T09:17:02.020Z,33.3
2022-12-18T09:18:01.463Z,33.3
2022-12-18T09:19:04.368Z,33.4
2022-12-18T09:20:01.793Z,33.3
2022-12-18T09:21:09.333Z,33.4
2022-12-18T09:22:01.450Z,33.4
2022-12-18T09:23:02.177Z,33.3
2022-12-18T09:24:01.846Z,33.1
2022-12-18T09:25:01.812Z,33.1
2022-12-18T09:26:01.802Z,33.1
2022-12-18T09:27:01.961Z,32.9
2022-12-18T09:28:02.546Z,32.9
2022-12-18T09:29:02.736Z,32.9
2022-12-18T09:30:03.278Z,32.9
2022-12-18T09:31:06.001Z,32.7
2022-12-18T09:32:01.462Z,32.9
2022-12-18T09:33:01.495Z,33.1
2022-12-18T09:34:02.081Z,33.1
2022-12-18T09:35:01.826Z,33.3
2022-12-18T09:36:03.325Z,32.9
2022-12-18T09:37:01.463Z,32.7
2022-12-18T09:38:01.452Z,32.5
2022-12-18T09:39:07.863Z,32.4
2022-12-18T09:40:01.445Z,32.5
2022-12-18T09:41:06.815Z,32.4
2022-12-18T09:42:01.848Z,32.5
2022-12-18T09:43:05.185Z,32.4
2022-12-18T09:44:11.465Z,32.4
2022-12-18T09:45:03.772Z,32.5
2022-12-18T09:46:06.564Z,32.4
2022-12-18T09:47:10.133Z,32.7
2022-12-18T09:48:02.359Z,32.4
2022-12-18T09:49:05.332Z,32.2
2022-12-18T09:50:17.267Z,32.0
2022-12-18T09:51:11.651Z,31.8
2022-12-18T09:52:08.652Z,31.6
2022-12-18T09:53:06.861Z,31.8
2022-12-18T09:54:07.084Z,32.2
2022-12-18T09:55:06.669Z,31.8
2022-12-18T09:56:04.368Z,31.8
2022-12-18T09:57:02.200Z,31.8
2022-12-18T09:58:11.753Z,31.6
2022-12-18T09:59:04.273Z,31.5
2022-12-18T10:00:11.773Z,31.5
2022-12-18T10:01:01.992Z,31.5
2022-12-18T10:02:15.540Z,31.6
2022-12-18T10:03:09.141Z,31.6
2022-12-18T10:04:01.523Z,31.5
2022-12-18T10:05:08.369Z,31.3
2022-12-18T10:06:11.139Z,31.3
2022-12-18T10:07:11.626Z,31.1
2022-12-18T10:08:11.249Z,30.9
2022-12-18T10:09:11.585Z,30.9
2022-12-18T10:10:11.809Z,31.1
2022-12-18T10:11:12.341Z,30.9
2022-12-18T10:12:08.697Z,30.7
2022-12-18T10:13:12.671Z,30.7
2022-12-18T10:14:10.053Z,30.6
2022-12-18T10:15:10.658Z,30.6
2022-12-18T10:16:12.904Z,30.6
2022-12-18T10:17:14.092Z,30.7
2022-12-18T10:18:18.732Z,30.7
2022-12-18T10:19:12.671Z,30.6
2022-12-18T10:20:10.759Z,30.6
2022-12-18T10:21:10.686Z,30.6
2022-12-18T10:22:11.415Z,30.4
2022-12-18T10:23:10.734Z,30.4
2022-12-18T10:24:16.187Z,30.2
2022-12-18T10:25:12.899Z,30.4
2022-12-18T10:26:04.502Z,30.4
2022-12-18T10:27:14.182Z,30.2
2022-12-18T10:28:12.745Z,30.2
2022-12-18T10:29:05.568Z,30.0
2022-12-18T10:30:11.562Z,30.0
2022-12-18T10:31:02.155Z,30.2
2022-12-18T10:32:01.469Z,30.2
2022-12-18T10:33:02.284Z,30.2
2022-12-18T10:34:01.455Z,30.2
2022-12-18T10:35:01.849Z,30.0
2022-12-18T10:36:01.458Z,30.0
2022-12-18T10:37:06.559Z,29.8
2022-12-18T10:38:06.807Z,30.2
2022-12-18T10:39:15.614Z,30.4
2022-12-18T10:40:09.478Z,30.4
2022-12-18T10:41:03.701Z,30.2
2022-12-18T10:42:11.680Z,30.2
2022-12-18T10:43:04.757Z,30.0
2022-12-18T10:44:14.980Z,30.2
2022-12-18T10:45:04.180Z,30.0
2022-12-18T10:46:12.275Z,30.2
2022-12-18T10:47:11.704Z,30.4
2022-12-18T10:48:01.869Z,30.4
2022-12-18T10:49:01.853Z,30.2
2022-12-18T10:50:01.989Z,30.2
2022-12-18T10:51:12.674Z,30.4
2022-12-18T10:52:12.917Z,30.4
2022-12-18T10:53:04.763Z,30.4
2022-12-18T10:54:04.333Z,30.7
2022-12-18T10:55:04.538Z,30.6
2022-12-18T10:56:04.635Z,30.2
2022-12-18T10:57:15.270Z,30.2
2022-12-18T10:58:26.323Z,30.2
2022-12-18T10:59:04.176Z,30.2
2022-12-18T11:00:20.874Z,30.0
2022-12-18T11:01:07.697Z,29.8
2022-12-18T11:02:01.981Z,29.7
2022-12-18T11:03:01.864Z,29.8
2022-12-18T11:04:08.396Z,29.7
2022-12-18T11:05:03.342Z,29.7
2022-12-18T11:06:06.281Z,29.7
2022-12-18T11:07:04.833Z,29.5
2022-12-18T11:08:02.072Z,29.5
2022-12-18T11:09:09.358Z,29.8
2022-12-18T11:10:02.545Z,29.8
2022-12-18T11:11:02.178Z,30.0
2022-12-18T11:12:04.369Z,29.8
2022-12-18T11:13:15.469Z,30.0
2022-12-18T11:14:04.246Z,30.0
2022-12-18T11:15:01.617Z,30.0
2022-12-18T11:16:02.072Z,29.8
2022-12-18T11:17:25.825Z,30.0
2022-12-18T11:18:01.535Z,29.8
2022-12-18T11:19:14.558Z,29.8
2022-12-18T11:20:04.472Z,29.7
2022-12-18T11:21:08.145Z,29.8
2022-12-18T11:22:13.059Z,30.0
2022-12-18T11:23:05.142Z,29.8
2022-12-18T11:24:01.689Z,30.2
2022-12-18T11:25:34.469Z,30.2
2022-12-18T11:26:04.438Z,30.2
2022-12-18T11:27:04.545Z,30.2
2022-12-18T11:28:04.598Z,30.2
2022-12-18T11:29:09.840Z,30.4
2022-12-18T11:30:09.476Z,30.2
2022-12-18T11:31:17.262Z,30.4
2022-12-18T11:32:20.869Z,30.4
2022-12-18T11:33:05.662Z,30.4
2022-12-18T11:34:29.238Z,30.2
2022-12-18T11:35:14.950Z,30.4
2022-12-18T11:36:05.937Z,30.2
2022-12-18T11:37:03.803Z,30.0
2022-12-18T11:38:10.535Z,30.0
2022-12-18T11:39:09.377Z,30.4
2022-12-18T11:40:09.752Z,30.2
2022-12-18T11:41:07.528Z,30.2
2022-12-18T11:42:09.057Z,30.2
2022-12-18T11:43:09.917Z,30.2
2022-12-18T11:44:07.201Z,30.2
2022-12-18T11:45:17.872Z,30.2
2022-12-18T11:46:07.289Z,30.0
2022-12-18T11:47:09.832Z,30.0
2022-12-18T11:48:09.702Z,30.0
2022-12-18T11:49:07.872Z,30.0
2022-12-18T11:50:12.150Z,30.0
2022-12-18T11:51:06.193Z,30.0
2022-12-18T11:52:11.135Z,30.0
2022-12-18T11:53:05.580Z,30.0
2022-12-18T11:54:10.130Z,29.8
2022-12-18T11:55:11.703Z,30.0
2022-12-18T11:56:17.525Z,30.0
2022-12-18T11:57:11.633Z,30.0
2022-12-18T11:58:10.622Z,29.8
2022-12-18T11:59:17.555Z,29.8
2022-12-18T12:00:05.135Z,30.0
2022-12-18T12:01:12.948Z,29.8
2022-12-18T12:02:20.776Z,29.8
2022-12-18T12:03:20.570Z,30.0
2022-12-18T12:04:18.708Z,30.0
2022-12-18T12:05:19.722Z,30.0
2022-12-18T12:06:10.412Z,30.0
2022-12-18T12:07:16.587Z,29.8
2022-12-18T12:08:10.327Z,30.0
2022-12-18T12:09:10.080Z,30.0
2022-12-18T12:10:12.579Z,30.0
2022-12-18T12:11:13.666Z,30.0
2022-12-18T12:12:20.667Z,30.0
2022-12-18T12:13:20.875Z,30.0
2022-12-18T12:14:15.190Z,30.0
2022-12-18T12:15:13.248Z,30.0
2022-12-18T12:16:16.008Z,30.0
2022-12-18T12:17:10.410Z,30.0
2022-12-18T12:18:11.438Z,30.0
2022-12-18T12:19:20.596Z,29.8
2022-12-18T12:20:13.282Z,30.0
2022-12-18T12:21:11.074Z,30.0
2022-12-18T12:22:12.797Z,29.8
2022-12-18T12:23:11.627Z,30.0
2022-12-18T12:24:19.908Z,30.2
2022-12-18T12:25:14.436Z,30.0
2022-12-18T12:26:06.300Z,29.8
2022-12-18T12:27:06.996Z,30.0
2022-12-18T12:28:15.806Z,30.2
2022-12-18T12:29:10.642Z,30.0
2022-12-18T12:30:14.859Z,30.2
2022-12-18T12:31:05.867Z,30.2
2022-12-18T12:32:11.553Z,30.2
2022-12-18T12:33:12.379Z,30.0
2022-12-18T12:34:11.422Z,30.2
2022-12-18T12:35:11.300Z,30.0
2022-12-18T12:36:13.487Z,30.0
2022-12-18T12:37:16.107Z,30.2
2022-12-18T12:38:09.484Z,30.2
2022-12-18T12:39:08.439Z,30.2
2022-12-18T12:40:11.004Z,30.2
2022-12-18T12:41:05.558Z,30.2
2022-12-18T12:42:04.398Z,30.2
2022-12-18T12:43:10.488Z,30.2
2022-12-18T12:44:07.126Z,30.4
2022-12-18T12:45:07.115Z,30.2
2022-12-18T12:46:05.575Z,30.4
2022-12-18T12:47:11.556Z,30.4
2022-12-18T12:48:04.468Z,30.6
2022-12-18T12:49:03.787Z,30.4
2022-12-18T12:50:11.599Z,30.6
2022-12-18T12:51:09.580Z,30.7
2022-12-18T12:52:12.666Z,30.7
2022-12-18T12:53:06.156Z,30.7
2022-12-18T12:54:05.511Z,30.7
2022-12-18T12:55:04.622Z,30.9
2022-12-18T12:56:03.435Z,30.9
2022-12-18T12:57:09.230Z,30.9
2022-12-18T12:58:08.478Z,30.9
2022-12-18T12:59:12.970Z,30.9
2022-12-18T13:00:05.654Z,30.9
2022-12-18T13:01:10.286Z,31.1
2022-12-18T13:02:15.975Z,31.3
2022-12-18T13:03:11.638Z,31.3
2022-12-18T13:04:13.318Z,31.3
2022-12-18T13:05:12.427Z,31.6
2022-12-18T13:06:08.209Z,31.6
2022-12-18T13:07:06.902Z,31.6
2022-12-18T13:08:07.226Z,31.6
2022-12-18T13:09:02.748Z,31.8
2022-12-18T13:10:13.504Z,32.4
2022-12-18T13:11:01.958Z,32.4
2022-12-18T13:12:03.805Z,32.4
2022-12-18T13:13:05.486Z,32.5
2022-12-18T13:14:02.297Z,32.7
2022-12-18T13:15:15.760Z,32.9
2022-12-18T13:16:06.582Z,33.3
2022-12-18T13:17:15.504Z,33.4
2022-12-18T13:18:13.689Z,33.8
2022-12-18T13:19:01.506Z,34.2